Time;durP1;ratioP1;P1;durP2;ratioP2;P2;SDS_P1;SDS_P2;PMS_P1;PMS_P2;Temp;Humidity;BMP_temperature;BMP_pressure;BME280_temperature;BME280_humidity;BME280_pressure;Samples;Min_cycle;Max_cycle;Signal;HPM_P1;HPM_P2
2022/04/30 00:00:58;;;;;;;8.50;4.53;;;4.80;94.70;;;;;;5080076;28;20237;-78
2022/04/30 00:03:27;;;;;;;9.73;5.00;;;4.70;94.80;;;;;;5078541;28;20275;-78
2022/04/30 00:05:57;;;;;;;8.73;4.80;;;4.70;95.10;;;;;;5078170;28;20311;-78
2022/04/30 00:08:24;;;;;;;7.83;5.50;;;4.60;95.40;;;;;;5077895;28;20313;-77
2022/04/30 00:10:52;;;;;;;8.27;4.67;;;4.60;95.40;;;;;;5078737;28;20226;-77
2022/04/30 00:13:19;;;;;;;8.80;5.13;;;4.60;95.40;;;;;;5078495;28;20229;-78
2022/04/30 00:15:46;;;;;;;9.80;5.20;;;4.60;95.50;;;;;;5077643;28;20699;-78
2022/04/30 00:18:13;;;;;;;7.77;4.90;;;4.60;95.50;;;;;;5078637;28;20282;-78
2022/04/30 00:20:45;;;;;;;8.87;5.73;;;4.50;95.50;;;;;;5074886;28;20222;-78
2022/04/30 00:25:56;;;;;;;8.00;4.73;;;4.40;95.10;;;;;;5076340;28;20222;-78
2022/04/30 00:28:25;;;;;;;8.60;5.23;;;4.40;94.70;;;;;;5074640;28;20235;-78
2022/04/30 00:30:52;;;;;;;7.97;4.27;;;4.30;94.90;;;;;;5075351;28;20678;-78
2022/04/30 00:33:19;;;;;;;6.70;4.13;;;4.30;95.00;;;;;;5072703;28;20229;-78
2022/04/30 00:35:45;;;;;;;9.67;4.73;;;4.30;95.20;;;;;;5081783;28;20225;-78
2022/04/30 00:38:15;;;;;;;7.97;4.93;;;4.20;95.40;;;;;;5074805;28;20374;-78
2022/04/30 00:40:43;;;;;;;8.50;5.00;;;4.20;95.70;;;;;;5077110;28;20247;-78
2022/04/30 00:43:10;;;;;;;12.37;5.90;;;4.10;95.70;;;;;;5077291;28;20235;-78
2022/04/30 00:45:37;;;;;;;8.43;4.97;;;4.10;95.70;;;;;;5074158;28;20243;-77
2022/04/30 00:48:07;;;;;;;11.03;5.20;;;4.10;96.00;;;;;;5076208;28;20245;-78
2022/04/30 00:50:37;;;;;;;8.80;5.40;;;4.00;96.10;;;;;;5078289;28;20330;-77
2022/04/30 00:53:05;;;;;;;10.33;5.30;;;4.00;96.30;;;;;;5077335;28;20944;-78
2022/04/30 00:55:35;;;;;;;7.20;4.63;;;4.00;96.30;;;;;;5077410;28;20678;-78
2022/04/30 00:58:07;;;;;;;8.43;4.53;;;3.90;96.20;;;;;;5078555;28;20233;-77
2022/04/30 01:00:34;;;;;;;7.47;4.40;;;3.90;95.90;;;;;;5077307;28;20813;-77
2022/04/30 01:03:11;;;;;;;6.97;4.53;;;3.80;95.60;;;;;;5078439;28;20323;-77
2022/04/30 01:05:46;;;;;;;6.43;4.33;;;3.80;95.50;;;;;;5074192;28;20263;-78
2022/04/30 01:08:13;;;;;;;7.53;5.07;;;3.70;95.50;;;;;;5080421;28;20224;-79
2022/04/30 01:10:41;;;;;;;8.00;5.20;;;3.70;95.80;;;;;;5076839;28;20234;-78
2022/04/30 01:13:09;;;;;;;8.00;4.10;;;3.70;95.80;;;;;;5074574;28;20253;-78
2022/04/30 01:15:37;;;;;;;6.87;4.90;;;3.60;95.80;;;;;;5077665;28;20258;-78
2022/04/30 01:18:06;;;;;;;9.57;4.80;;;3.60;95.80;;;;;;5074333;28;20230;-78
2022/04/30 01:20:35;;;;;;;9.10;5.20;;;3.60;95.90;;;;;;5078121;28;20227;-78
2022/04/30 01:23:05;;;;;;;9.73;5.20;;;3.50;96.50;;;;;;5075066;28;20240;-78
2022/04/30 01:25:32;;;;;;;8.27;5.23;;;3.50;96.40;;;;;;5076929;28;20232;-78
2022/04/30 01:28:00;;;;;;;10.87;6.23;;;3.50;96.50;;;;;;5076163;28;20227;-79
2022/04/30 01:30:27;;;;;;;7.60;5.67;;;3.50;97.00;;;;;;5077631;28;20527;-79
2022/04/30 01:38:24;;;;;;;8.20;5.47;;;3.50;97.60;;;;;;5074119;28;20667;-79
2022/04/30 01:40:51;;;;;;;9.50;5.33;;;3.40;97.20;;;;;;5074782;28;20880;-79
2022/04/30 01:43:19;;;;;;;8.73;5.60;;;3.40;97.20;;;;;;5078985;28;20230;-78
2022/04/30 01:45:46;;;;;;;7.63;5.40;;;3.40;97.20;;;;;;5079066;28;20311;-78
2022/04/30 01:48:14;;;;;;;10.10;5.97;;;3.40;97.20;;;;;;5074871;28;20708;-78
2022/04/30 01:50:41;;;;;;;9.40;5.73;;;3.30;97.20;;;;;;5077525;28;20231;-78
2022/04/30 01:53:09;;;;;;;8.10;6.20;;;3.30;97.40;;;;;;5076394;28;20741;-77
2022/04/30 01:55:37;;;;;;;10.13;5.73;;;3.30;97.70;;;;;;5081170;28;20220;-77
2022/04/30 01:58:09;;;;;;;9.83;5.73;;;3.20;97.80;;;;;;5077763;28;20310;-77
2022/04/30 02:00:36;;;;;;;14.23;5.33;;;3.20;97.50;;;;;;5074037;28;20239;-77
2022/04/30 02:03:06;;;;;;;8.50;5.33;;;3.20;97.40;;;;;;5074566;28;20229;-78
2022/04/30 02:05:33;;;;;;;10.27;5.13;;;3.20;97.30;;;;;;5073244;28;20254;-77
2022/04/30 02:08:03;;;;;;;8.60;5.73;;;3.20;97.30;;;;;;5074455;28;21005;-78
2022/04/30 02:10:30;;;;;;;7.20;5.37;;;3.10;97.30;;;;;;5078307;28;20234;-77
2022/04/30 02:12:59;;;;;;;9.40;5.23;;;3.10;97.40;;;;;;5077726;28;20573;-77
2022/04/30 02:15:27;;;;;;;9.00;5.27;;;3.10;97.40;;;;;;5073005;28;20240;-79
2022/04/30 02:17:55;;;;;;;8.67;5.50;;;3.10;97.20;;;;;;5072064;28;20661;-78
2022/04/30 02:20:25;;;;;;;8.57;5.20;;;3.10;97.40;;;;;;5076878;28;20634;-78
2022/04/30 02:22:54;;;;;;;11.67;6.03;;;3.00;97.60;;;;;;5079628;28;20230;-77
2022/04/30 02:25:22;;;;;;;10.60;6.07;;;3.00;97.80;;;;;;5068529;28;20223;-77
2022/04/30 02:27:50;;;;;;;8.97;5.93;;;3.00;97.90;;;;;;5073092;28;20723;-77
2022/04/30 02:30:21;;;;;;;8.00;5.37;;;3.00;97.90;;;;;;5074105;28;20702;-78
2022/04/30 02:32:50;;;;;;;9.50;5.47;;;3.00;98.00;;;;;;5080130;28;20242;-77
2022/04/30 02:35:19;;;;;;;8.20;6.20;;;3.00;97.90;;;;;;5082071;28;20226;-77
2022/04/30 02:37:48;;;;;;;8.17;5.60;;;3.00;98.00;;;;;;5080987;28;20770;-78
2022/04/30 02:40:15;;;;;;;11.80;6.20;;;2.90;98.10;;;;;;5082106;28;20307;-78
2022/04/30 02:42:44;;;;;;;13.80;6.17;;;2.90;97.90;;;;;;5080241;28;20288;-78
2022/04/30 02:45:12;;;;;;;11.27;6.60;;;2.90;97.90;;;;;;5081696;28;20279;-78
2022/04/30 02:47:43;;;;;;;10.43;6.83;;;2.90;98.00;;;;;;5083688;28;20258;-78
2022/04/30 02:50:11;;;;;;;9.57;6.03;;;2.90;98.40;;;;;;5082050;28;20290;-78
2022/04/30 02:52:41;;;;;;;9.97;6.30;;;2.90;98.50;;;;;;5080791;28;20235;-79
2022/04/30 02:55:08;;;;;;;12.03;6.73;;;2.90;98.50;;;;;;5085275;28;20237;-78
2022/04/30 02:59:53;;;;;;;12.87;6.50;;;2.90;98.50;;;;;;5084583;28;20601;-78
2022/04/30 03:00:26;;;;;;;10.83;6.73;;;2.90;98.60;;;;;;5078728;28;20745;-78
2022/04/30 03:03:15;;;;;;;7.60;6.20;;;2.90;98.40;;;;;;5080261;28;20246;-78
2022/04/30 03:05:43;;;;;;;9.10;6.23;;;2.90;98.60;;;;;;5081596;28;20297;-77
2022/04/30 03:08:13;;;;;;;13.50;6.30;;;2.80;98.60;;;;;;5076722;28;20247;-77
2022/04/30 03:10:40;;;;;;;10.87;7.10;;;2.80;98.90;;;;;;5073833;28;20240;-77
2022/04/30 03:13:07;;;;;;;13.50;7.03;;;2.80;98.80;;;;;;5079647;28;20228;-77
2022/04/30 03:15:34;;;;;;;11.40;7.20;;;2.80;98.90;;;;;;5084181;28;20230;-77
2022/04/30 03:23:33;;;;;;;10.97;6.20;;;2.90;99.00;;;;;;5079394;28;20233;-77
2022/04/30 03:26:00;;;;;;;11.07;7.10;;;2.80;99.00;;;;;;5079470;28;20225;-77
2022/04/30 03:28:27;;;;;;;9.00;6.57;;;2.80;99.20;;;;;;5073389;28;20248;-78
2022/04/30 03:30:54;;;;;;;9.73;6.87;;;2.80;99.30;;;;;;5075860;28;20311;-77
2022/04/30 03:33:20;;;;;;;12.77;6.37;;;2.80;99.20;;;;;;5073442;28;20297;-77
2022/04/30 03:35:49;;;;;;;10.80;7.20;;;2.80;99.10;;;;;;5081600;28;20311;-77
2022/04/30 03:38:16;;;;;;;11.07;7.03;;;2.80;99.30;;;;;;5077777;28;20728;-77
2022/04/30 03:40:42;;;;;;;8.10;6.10;;;2.80;99.30;;;;;;5078089;28;20234;-77
2022/04/30 03:43:09;;;;;;;13.70;6.97;;;2.80;99.50;;;;;;5082790;28;20234;-77
2022/04/30 03:45:36;;;;;;;12.63;7.23;;;2.80;99.40;;;;;;5083172;28;20735;-77
2022/04/30 03:48:03;;;;;;;8.27;6.23;;;2.80;99.50;;;;;;5081528;28;20315;-77
2022/04/30 03:50:30;;;;;;;10.00;5.80;;;2.80;99.60;;;;;;5078355;28;20716;-77
2022/04/30 03:52:58;;;;;;;9.27;6.00;;;2.80;99.60;;;;;;5075853;28;20720;-77
2022/04/30 03:55:26;;;;;;;7.00;5.70;;;2.80;99.60;;;;;;5081385;28;20220;-78
2022/04/30 03:57:53;;;;;;;6.97;5.77;;;2.80;99.40;;;;;;5077180;28;20413;-77
2022/04/30 04:00:20;;;;;;;11.17;6.10;;;2.80;99.20;;;;;;5073232;28;20577;-77
2022/04/30 04:02:47;;;;;;;7.10;5.67;;;2.80;99.00;;;;;;5082094;28;20229;-76
2022/04/30 04:05:15;;;;;;;10.13;6.20;;;2.80;98.70;;;;;;5073749;28;20354;-77
2022/04/30 04:07:42;;;;;;;10.60;6.67;;;2.80;98.60;;;;;;5079638;28;20246;-77
2022/04/30 04:10:12;;;;;;;8.97;6.40;;;2.70;98.60;;;;;;5076160;28;20229;-77
2022/04/30 04:12:39;;;;;;;9.30;6.57;;;2.70;98.80;;;;;;5074335;28;20363;-77
2022/04/30 04:17:53;;;;;;;7.17;5.40;;;2.70;98.90;;;;;;5075471;28;20229;-77
2022/04/30 04:20:24;;;;;;;9.13;6.70;;;2.70;98.40;;;;;;5079118;28;20258;-77
2022/04/30 04:22:51;;;;;;;11.20;6.63;;;2.80;98.30;;;;;;5077342;28;20227;-78
2022/04/30 04:28:04;;;;;;;12.03;6.13;;;2.80;98.90;;;;;;5081592;28;20228;-78
2022/04/30 04:30:32;;;;;;;10.13;6.80;;;2.90;98.80;;;;;;5078596;28;20949;-77
2022/04/30 04:32:59;;;;;;;11.60;7.57;;;3.00;99.00;;;;;;5080088;28;20213;-78
2022/04/30 04:35:27;;;;;;;11.27;7.00;;;3.10;99.40;;;;;;5078120;28;20224;-77
2022/04/30 04:37:53;;;;;;;15.90;7.77;;;3.20;99.40;;;;;;5073803;28;20236;-77
2022/04/30 04:40:22;;;;;;;12.20;7.63;;;3.20;99.40;;;;;;5079012;28;20225;-78
2022/04/30 04:42:48;;;;;;;12.47;7.67;;;3.30;99.60;;;;;;5078676;28;20227;-76
2022/04/30 04:45:15;;;;;;;11.77;8.30;;;3.40;99.70;;;;;;5092159;28;20331;-77
2022/04/30 04:47:49;;;;;;;12.97;7.00;;;3.50;99.90;;;;;;5073545;28;20229;-77
2022/04/30 04:50:16;;;;;;;12.27;7.00;;;3.60;99.90;;;;;;5078044;28;20219;-76
2022/04/30 04:52:44;;;;;;;12.73;7.90;;;3.60;99.90;;;;;;5077368;28;20225;-77
2022/04/30 04:55:11;;;;;;;14.20;8.30;;;3.70;99.90;;;;;;5076659;28;20298;-77
2022/04/30 04:57:39;;;;;;;13.90;7.33;;;3.80;99.90;;;;;;5078488;28;20232;-76
2022/04/30 05:00:08;;;;;;;11.30;6.07;;;3.80;99.90;;;;;;5077242;28;20333;-76
2022/04/30 05:02:35;;;;;;;9.20;6.93;;;3.90;99.90;;;;;;5070037;28;20248;-76
2022/04/30 05:05:01;;;;;;;11.57;6.80;;;3.90;99.90;;;;;;5076254;28;20232;-76
2022/04/30 05:07:28;;;;;;;9.93;6.43;;;4.00;99.90;;;;;;5080611;28;20229;-76
2022/04/30 05:09:55;;;;;;;13.03;7.33;;;4.00;99.90;;;;;;5071889;28;20226;-76
2022/04/30 05:12:21;;;;;;;12.33;7.03;;;4.10;99.90;;;;;;5076453;28;20226;-76
2022/04/30 05:14:52;;;;;;;9.17;6.30;;;4.10;99.90;;;;;;5076181;28;20240;-76
2022/04/30 05:17:19;;;;;;;10.70;6.43;;;4.10;99.90;;;;;;5075123;28;20363;-77
2022/04/30 05:19:45;;;;;;;11.33;7.00;;;4.20;99.90;;;;;;5079705;28;20229;-79
2022/04/30 05:22:13;;;;;;;9.87;6.70;;;4.20;99.90;;;;;;5075630;28;20979;-77
2022/04/30 05:24:40;;;;;;;7.93;6.67;;;4.30;99.90;;;;;;5078580;28;20733;-77
2022/04/30 05:27:08;;;;;;;11.30;7.37;;;4.30;99.90;;;;;;5080798;28;20659;-77
2022/04/30 05:29:35;;;;;;;12.27;6.30;;;4.40;99.90;;;;;;5076501;28;20233;-77
2022/04/30 05:32:04;;;;;;;9.03;5.80;;;4.40;99.90;;;;;;5079896;28;20302;-76
2022/04/30 05:34:31;;;;;;;10.27;6.37;;;4.50;99.90;;;;;;5074420;28;20745;-78
2022/04/30 05:36:57;;;;;;;8.10;6.27;;;4.60;99.90;;;;;;5076076;28;20260;-78
2022/04/30 05:39:26;;;;;;;10.87;6.00;;;4.70;99.90;;;;;;5076757;28;20843;-77
2022/04/30 05:41:52;;;;;;;6.90;5.17;;;4.70;99.90;;;;;;5078518;28;20371;-77
2022/04/30 05:44:19;;;;;;;9.07;5.00;;;4.80;99.90;;;;;;5079270;28;20262;-77
2022/04/30 05:46:46;;;;;;;7.87;4.80;;;4.90;99.90;;;;;;5080129;28;20230;-77
2022/04/30 05:49:14;;;;;;;8.87;5.00;;;4.90;99.90;;;;;;5080859;28;20343;-77
2022/04/30 05:51:40;;;;;;;8.17;5.33;;;5.00;99.90;;;;;;5078231;28;20230;-78
2022/04/30 05:54:07;;;;;;;7.00;4.90;;;5.10;99.80;;;;;;5070317;28;20305;-77
2022/04/30 05:56:34;;;;;;;7.70;5.10;;;5.10;99.90;;;;;;5079525;28;20611;-78
2022/04/30 05:59:01;;;;;;;8.03;4.97;;;5.20;99.80;;;;;;5076353;28;20305;-77
2022/04/30 06:01:28;;;;;;;7.40;4.20;;;5.30;99.80;;;;;;5073393;28;20707;-77
2022/04/30 06:03:55;;;;;;;9.33;4.20;;;5.30;99.60;;;;;;5075886;28;20233;-77
2022/04/30 06:06:24;;;;;;;7.40;4.20;;;5.40;99.60;;;;;;5072581;28;20227;-78
2022/04/30 06:08:51;;;;;;;6.20;4.00;;;5.50;99.70;;;;;;5073195;28;20226;-77
2022/04/30 06:11:18;;;;;;;7.20;4.07;;;5.60;99.50;;;;;;5073005;28;20738;-78
2022/04/30 06:13:45;;;;;;;5.97;3.83;;;5.80;99.30;;;;;;5072709;28;20242;-78
2022/04/30 06:16:12;;;;;;;6.03;3.40;;;5.90;99.10;;;;;;5080211;28;20277;-77
2022/04/30 06:18:38;;;;;;;5.50;3.37;;;6.00;99.00;;;;;;5074191;28;20256;-78
2022/04/30 06:21:05;;;;;;;4.67;3.50;;;6.10;99.00;;;;;;5079895;28;20214;-77
2022/04/30 06:23:33;;;;;;;5.00;3.50;;;6.30;98.90;;;;;;5078309;28;20349;-78
2022/04/30 06:26:00;;;;;;;6.30;3.23;;;6.40;98.80;;;;;;5078832;28;20238;-78
2022/04/30 06:28:26;;;;;;;4.67;3.13;;;6.60;98.70;;;;;;5080540;28;20223;-79
2022/04/30 06:30:53;;;;;;;5.20;2.70;;;6.80;98.80;;;;;;5081112;28;20231;-78
2022/04/30 06:33:20;;;;;;;3.77;2.73;;;7.10;98.20;;;;;;5079078;28;20248;-78
2022/04/30 06:35:47;;;;;;;4.00;3.00;;;7.30;97.90;;;;;;5081378;28;20830;-79
2022/04/30 06:38:14;;;;;;;5.10;3.20;;;7.50;97.80;;;;;;5068233;28;20317;-78
2022/04/30 06:40:42;;;;;;;4.20;2.70;;;7.70;97.60;;;;;;5078432;28;20223;-78
2022/04/30 06:43:09;;;;;;;6.93;2.73;;;7.80;97.10;;;;;;5076850;28;20240;-78
2022/04/30 06:45:35;;;;;;;4.03;3.07;;;8.00;97.10;;;;;;5074332;28;20240;-78
2022/04/30 06:48:02;;;;;;;5.50;2.60;;;8.20;97.00;;;;;;5077444;28;20719;-78
2022/04/30 06:50:29;;;;;;;7.83;3.63;;;8.30;96.80;;;;;;5079453;28;20755;-78
2022/04/30 06:58:44;;;;;;;3.93;2.37;;;8.80;96.20;;;;;;5066296;28;20225;-78
2022/04/30 07:04:01;;;;;;;3.20;2.63;;;9.10;95.90;;;;;;5065544;28;20225;-79
2022/04/30 07:06:28;;;;;;;4.40;2.73;;;9.20;95.70;;;;;;5080265;28;20287;-80
2022/04/30 07:08:55;;;;;;;3.93;2.60;;;9.40;95.70;;;;;;5079392;28;20231;-79
2022/04/30 07:11:23;;;;;;;5.67;2.70;;;9.60;95.90;;;;;;5075002;28;20221;-79
2022/04/30 07:13:50;;;;;;;4.70;2.97;;;9.90;95.90;;;;;;5078563;28;20254;-80
2022/04/30 07:16:16;;;;;;;5.50;2.63;;;10.40;95.80;;;;;;5075428;28;20237;-78
2022/04/30 07:18:43;;;;;;;3.50;2.40;;;11.00;95.60;;;;;;5077807;28;20237;-79
2022/04/30 07:21:10;;;;;;;6.27;2.70;;;11.70;95.30;;;;;;5073689;28;20693;-77
2022/04/30 07:23:37;;;;;;;2.67;1.97;;;12.40;94.80;;;;;;5078204;28;20355;-79
2022/04/30 07:26:04;;;;;;;3.13;2.73;;;13.20;94.00;;;;;;5078279;28;20232;-78
2022/04/30 07:28:35;;;;;;;4.97;2.10;;;13.90;92.90;;;;;;5079225;28;20245;-80
2022/04/30 07:31:02;;;;;;;3.87;2.10;;;14.50;91.70;;;;;;5086290;28;20801;-79
2022/04/30 07:33:29;;;;;;;5.60;2.40;;;15.10;90.20;;;;;;5082087;28;20238;-81
2022/04/30 07:35:56;;;;;;;5.50;2.20;;;15.80;89.20;;;;;;5083180;28;20338;-82
2022/04/30 07:38:23;;;;;;;3.53;2.13;;;16.20;87.40;;;;;;5081661;28;20232;-80
2022/04/30 07:40:49;;;;;;;2.63;2.00;;;16.70;84.10;;;;;;5086175;28;20872;-81
2022/04/30 07:43:16;;;;;;;4.93;2.40;;;17.10;83.10;;;;;;5082012;28;20254;-81
2022/04/30 07:45:44;;;;;;;3.67;2.20;;;17.50;81.10;;;;;;5079389;28;20622;-82
2022/04/30 07:48:12;;;;;;;2.92;1.77;;;17.80;79.30;;;;;;5079590;28;20230;-81
2022/04/30 07:50:38;;;;;;;5.90;2.05;;;18.10;77.80;;;;;;5080107;28;20310;-81
2022/04/30 07:53:06;;;;;;;2.58;1.90;;;18.40;77.30;;;;;;5078426;28;20303;-82
2022/04/30 07:55:34;;;;;;;5.13;2.28;;;18.70;75.20;;;;;;5074029;28;20227;-82
2022/04/30 07:58:02;;;;;;;4.07;2.60;;;18.90;74.80;;;;;;5080023;28;20249;-82
2022/04/30 08:00:29;;;;;;;3.13;1.85;;;19.20;73.90;;;;;;5083446;28;20890;-82
2022/04/30 08:02:58;;;;;;;3.05;2.10;;;19.40;71.50;;;;;;5077717;28;20261;-83
2022/04/30 08:05:25;;;;;;;4.20;2.22;;;19.50;71.00;;;;;;5079569;28;20231;-82
2022/04/30 08:07:54;;;;;;;3.10;1.95;;;19.70;70.70;;;;;;5082372;28;20238;-83
2022/04/30 08:10:21;;;;;;;4.07;2.35;;;20.00;70.60;;;;;;5078009;28;20226;-83
2022/04/30 08:12:53;;;;;;;2.58;2.13;;;20.10;68.40;;;;;;5076859;28;20234;-82
2022/04/30 08:15:21;;;;;;;4.57;2.40;;;20.30;67.10;;;;;;5075274;28;20222;-82
2022/04/30 08:17:47;;;;;;;3.08;2.30;;;20.50;67.30;;;;;;5074515;28;20227;-81
2022/04/30 08:20:16;;;;;;;3.90;2.47;;;20.60;66.40;;;;;;5076928;28;20734;-81
2022/04/30 08:22:42;;;;;;;3.38;2.30;;;20.80;63.30;;;;;;5077348;28;20313;-79
2022/04/30 08:25:10;;;;;;;6.72;2.72;;;20.80;63.30;;;;;;5072774;28;20222;-78
2022/04/30 08:27:36;;;;;;;2.95;2.30;;;20.80;64.40;;;;;;5071907;28;20563;-80
2022/04/30 08:30:04;;;;;;;5.93;2.42;;;20.80;64.10;;;;;;5076033;28;20219;-81
2022/04/30 08:32:31;;;;;;;4.60;2.45;;;20.80;63.70;;;;;;5074148;28;20331;-80
2022/04/30 08:35:00;;;;;;;5.43;3.65;;;21.00;63.00;;;;;;5091503;28;20698;-80
2022/04/30 08:37:29;;;;;;;4.57;2.35;;;21.20;62.80;;;;;;5087717;28;20404;-81
2022/04/30 08:39:55;;;;;;;3.45;2.40;;;21.30;61.50;;;;;;5077627;28;20316;-80
2022/04/30 08:42:24;;;;;;;6.03;3.03;;;21.40;60.40;;;;;;5071555;28;20302;-79
2022/04/30 08:44:51;;;;;;;4.43;2.67;;;21.40;60.10;;;;;;5075195;28;20241;-80
2022/04/30 08:47:18;;;;;;;5.82;3.15;;;21.40;59.90;;;;;;5077489;28;20237;-81
2022/04/30 08:49:45;;;;;;;5.47;3.10;;;21.30;58.50;;;;;;5075482;28;20710;-78
2022/04/30 08:52:12;;;;;;;4.32;3.00;;;21.40;59.60;;;;;;5070157;28;20312;-78
2022/04/30 08:54:40;;;;;;;4.35;2.67;;;21.40;59.40;;;;;;5070650;28;20218;-80
2022/04/30 08:57:07;;;;;;;4.80;2.80;;;21.50;58.80;;;;;;5074426;28;20757;-79
2022/04/30 08:59:34;;;;;;;3.13;2.47;;;21.60;57.40;;;;;;5070368;28;20304;-80
2022/04/30 09:02:02;;;;;;;4.32;2.30;;;21.60;56.40;;;;;;5073340;28;20631;-79
2022/04/30 09:04:43;;;;;;;3.03;2.10;;;21.50;57.40;;;;;;5073244;28;21028;-79
2022/04/30 09:07:14;;;;;;;3.50;2.00;;;21.60;54.80;;;;;;5072392;28;20568;-80
2022/04/30 09:09:43;;;;;;;2.22;1.50;;;21.80;55.60;;;;;;5064324;28;20460;-80
2022/04/30 09:12:13;;;;;;;3.20;1.27;;;22.00;54.60;;;;;;5069805;28;20234;-81
2022/04/30 09:14:41;;;;;;;2.42;1.30;;;22.20;54.30;;;;;;5073034;28;20679;-80
2022/04/30 09:17:10;;;;;;;1.25;1.15;;;22.40;53.90;;;;;;5072166;28;20244;-80
2022/04/30 09:19:47;;;;;;;2.45;1.10;;;22.50;52.80;;;;;;5071369;28;20865;-81
2022/04/30 09:22:15;;;;;;;1.88;1.35;;;22.50;50.70;;;;;;5072789;28;20234;-81
2022/04/30 09:24:50;;;;;;;1.25;0.73;;;22.60;52.60;;;;;;5075262;28;20764;-81
2022/04/30 09:27:18;;;;;;;1.33;0.80;;;22.80;49.70;;;;;;5076825;28;20264;-81
2022/04/30 09:29:45;;;;;;;1.23;0.70;;;23.00;51.00;;;;;;5075505;28;20224;-80
2022/04/30 09:32:17;;;;;;;1.73;0.88;;;23.20;50.20;;;;;;5072773;28;20573;-80
2022/04/30 09:37:42;;;;;;;2.15;1.30;;;23.70;50.00;;;;;;5075481;28;20226;-80
2022/04/30 09:40:22;;;;;;;2.80;1.48;;;24.00;50.10;;;;;;5072206;28;20218;-80
2022/04/30 09:42:49;;;;;;;3.83;1.70;;;24.10;49.20;;;;;;5069915;28;20234;-81
2022/04/30 09:45:32;;;;;;;1.98;1.42;;;24.30;50.10;;;;;;5071488;28;20235;-81
2022/04/30 09:48:01;;;;;;;1.88;1.08;;;24.40;48.70;;;;;;5070264;28;20776;-81
2022/04/30 09:56:07;;;;;;;1.30;0.90;;;24.60;45.40;;;;;;5071575;28;20222;-81
2022/04/30 09:58:39;;;;;;;2.30;0.80;;;24.50;45.60;;;;;;5073992;28;20241;-80
2022/04/30 10:01:07;;;;;;;1.00;0.80;;;24.30;45.00;;;;;;5076879;28;20361;-81
2022/04/30 10:03:35;;;;;;;2.53;1.05;;;24.10;44.60;;;;;;5073868;28;20723;-81
2022/04/30 10:06:04;;;;;;;1.52;1.00;;;23.80;44.00;;;;;;5077302;28;20260;-81
2022/04/30 10:08:33;;;;;;;1.92;1.08;;;23.50;44.50;;;;;;5071873;28;20301;-81
2022/04/30 10:11:26;;;;;;;3.22;1.45;;;23.20;45.20;;;;;;5068753;28;20236;-81
2022/04/30 10:14:08;;;;;;;1.83;1.00;;;22.90;46.40;;;;;;5075191;28;20226;-81
2022/04/30 10:16:36;;;;;;;1.50;1.02;;;22.70;44.80;;;;;;5094673;28;20280;-81
2022/04/30 10:19:14;;;;;;;3.50;1.50;;;22.60;45.70;;;;;;5074159;28;20271;-81
2022/04/30 10:21:42;;;;;;;2.72;1.40;;;22.60;46.00;;;;;;5077994;28;20237;-81
2022/04/30 10:24:12;;;;;;;2.22;1.35;;;22.50;46.00;;;;;;5077486;28;20739;-81
2022/04/30 10:26:59;;;;;;;3.10;1.25;;;22.40;45.70;;;;;;5078227;28;20309;-80
2022/04/30 10:29:26;;;;;;;1.75;1.30;;;22.20;45.70;;;;;;5076737;28;20580;-81
2022/04/30 10:31:53;;;;;;;3.60;1.38;;;22.20;46.10;;;;;;5071803;28;20238;-81
2022/04/30 10:34:29;;;;;;;3.38;1.30;;;22.10;46.00;;;;;;5075224;28;20235;-80
2022/04/30 10:36:56;;;;;;;3.05;1.25;;;22.20;46.10;;;;;;5079000;28;20828;-82
2022/04/30 10:39:23;;;;;;;3.75;1.65;;;22.40;46.70;;;;;;5075045;28;20222;-80
2022/04/30 10:41:53;;;;;;;2.70;1.50;;;22.50;46.60;;;;;;5083240;28;20227;-79
2022/04/30 10:44:29;;;;;;;2.25;1.40;;;22.60;46.40;;;;;;5095440;28;20342;-79
2022/04/30 10:46:56;;;;;;;2.63;1.40;;;22.60;45.10;;;;;;5080052;28;20313;-80
2022/04/30 10:49:23;;;;;;;3.70;1.55;;;22.50;44.40;;;;;;5076549;28;20225;-80
2022/04/30 10:51:55;;;;;;;3.55;1.60;;;22.20;44.50;;;;;;5082859;28;20238;-79
2022/04/30 10:54:23;;;;;;;3.63;1.40;;;21.80;44.60;;;;;;5078154;28;20223;-80
2022/04/30 10:57:00;;;;;;;2.10;1.35;;;21.40;45.00;;;;;;5086354;28;20249;-79
2022/04/30 10:59:27;;;;;;;3.35;1.60;;;21.10;45.20;;;;;;5089905;28;20234;-80
2022/04/30 11:01:54;;;;;;;4.60;1.70;;;20.90;46.30;;;;;;5088976;28;20652;-79
2022/04/30 11:04:22;;;;;;;3.17;1.70;;;20.80;46.70;;;;;;5081926;28;20682;-79
2022/04/30 11:06:51;;;;;;;2.80;1.70;;;20.70;47.00;;;;;;5084573;28;20283;-79
2022/04/30 11:09:19;;;;;;;4.18;1.90;;;20.70;47.30;;;;;;5074903;28;20218;-79
2022/04/30 11:11:48;;;;;;;2.30;1.70;;;20.60;46.90;;;;;;5080895;28;20317;-80
2022/04/30 11:14:17;;;;;;;2.65;1.55;;;20.50;47.00;;;;;;5075237;28;20578;-80
2022/04/30 11:16:45;;;;;;;1.92;1.58;;;20.30;46.90;;;;;;5085694;28;20284;-80
2022/04/30 11:19:13;;;;;;;3.88;1.80;;;20.10;47.10;;;;;;5080628;28;20618;-79
2022/04/30 11:21:43;;;;;;;2.70;1.58;;;20.00;47.50;;;;;;5082156;28;20243;-80
2022/04/30 11:24:11;;;;;;;2.38;1.95;;;19.80;47.30;;;;;;5084807;28;20319;-80
2022/04/30 11:26:39;;;;;;;2.38;1.60;;;19.70;47.40;;;;;;5084222;28;20256;-80
2022/04/30 11:29:10;;;;;;;3.08;1.70;;;19.50;47.30;;;;;;5087541;28;20219;-79
2022/04/30 11:31:38;;;;;;;5.30;1.95;;;19.40;47.50;;;;;;5075882;28;20669;-79
2022/04/30 11:34:09;;;;;;;3.40;2.03;;;19.20;47.70;;;;;;5082847;28;20229;-81
2022/04/30 11:36:43;;;;;;;3.63;1.70;;;19.10;47.80;;;;;;5088309;28;20223;-79
2022/04/30 11:39:10;;;;;;;2.03;1.60;;;19.10;47.70;;;;;;5090820;28;20260;-79
2022/04/30 11:41:41;;;;;;;3.67;1.55;;;19.00;47.80;;;;;;5092224;28;20235;-79
2022/04/30 11:44:09;;;;;;;5.15;1.85;;;19.00;48.20;;;;;;5089890;28;20226;-80
2022/04/30 11:46:39;;;;;;;3.53;2.05;;;18.90;48.00;;;;;;5087783;28;20513;-79
2022/04/30 11:49:10;;;;;;;4.13;2.08;;;18.90;48.50;;;;;;5091854;28;20276;-80
2022/04/30 11:51:37;;;;;;;2.53;1.95;;;18.80;48.40;;;;;;5088702;28;20223;-79
2022/04/30 11:54:09;;;;;;;2.97;2.17;;;18.70;48.70;;;;;;5089602;28;20223;-80
2022/04/30 11:56:37;;;;;;;3.38;1.77;;;18.60;49.10;;;;;;5085346;28;20709;-79
2022/04/30 11:59:04;;;;;;;4.68;2.20;;;18.60;49.30;;;;;;5087162;28;20321;-79
2022/04/30 12:01:33;;;;;;;3.75;1.80;;;18.60;49.20;;;;;;5086138;28;20235;-80
2022/04/30 12:04:08;;;;;;;2.92;1.95;;;18.60;48.90;;;;;;5083502;28;20632;-79
2022/04/30 12:06:36;;;;;;;6.65;2.28;;;18.70;49.20;;;;;;5084380;28;20283;-80
2022/04/30 12:09:14;;;;;;;3.20;2.50;;;18.70;49.30;;;;;;5087045;28;20642;-79
2022/04/30 12:11:42;;;;;;;3.47;2.50;;;18.70;49.20;;;;;;5084147;28;20292;-82
2022/04/30 12:14:12;;;;;;;6.15;2.58;;;18.70;49.30;;;;;;5080780;28;20749;-81
2022/04/30 12:16:42;;;;;;;5.03;2.70;;;18.70;49.40;;;;;;5080302;28;20238;-82
2022/04/30 12:25:00;;;;;;;3.83;2.30;;;18.70;50.00;;;;;;5080407;28;20219;-83
2022/04/30 12:27:28;;;;;;;4.53;2.25;;;18.80;49.80;;;;;;5079367;28;20222;-81
2022/04/30 12:30:03;;;;;;;5.05;2.40;;;18.80;49.90;;;;;;5080727;28;20222;-81
2022/04/30 12:32:31;;;;;;;3.95;2.28;;;18.80;49.60;;;;;;5083948;28;20325;-82
2022/04/30 12:35:02;;;;;;;4.72;2.33;;;18.70;49.40;;;;;;5081798;28;20301;-82
2022/04/30 12:37:33;;;;;;;4.30;2.22;;;18.70;49.20;;;;;;5081723;28;20319;-82
2022/04/30 12:40:00;;;;;;;4.95;2.17;;;18.60;49.20;;;;;;5081685;28;20257;-83
2022/04/30 12:42:27;;;;;;;3.80;2.80;;;18.50;49.20;;;;;;5080414;28;20250;-83
2022/04/30 12:44:54;;;;;;;3.70;2.08;;;18.50;49.40;;;;;;5084742;28;20229;-82
2022/04/30 12:47:20;;;;;;;6.68;2.50;;;18.50;49.50;;;;;;5080568;28;20283;-81
2022/04/30 12:49:47;;;;;;;2.95;1.98;;;18.40;49.80;;;;;;5080005;28;20242;-83
2022/04/30 12:52:16;;;;;;;3.53;2.53;;;18.40;49.80;;;;;;5081685;28;20283;-83
2022/04/30 12:54:43;;;;;;;4.00;2.30;;;18.30;49.80;;;;;;5099732;28;20314;-82
2022/04/30 12:57:11;;;;;;;4.33;2.50;;;18.20;50.00;;;;;;5083207;28;20230;-81
2022/04/30 12:59:42;;;;;;;3.57;1.97;;;18.10;50.10;;;;;;5080151;28;20231;-82
2022/04/30 13:02:09;;;;;;;2.70;1.92;;;18.10;50.40;;;;;;5077718;28;20248;-81
2022/04/30 13:04:37;;;;;;;4.45;2.25;;;18.10;50.70;;;;;;5071406;28;20234;-78
2022/04/30 13:07:05;;;;;;;3.00;1.95;;;18.20;50.50;;;;;;5083732;28;20223;-80
2022/04/30 13:15:06;;;;;;;3.80;2.00;;;18.30;50.00;;;;;;5084553;28;20472;-79
2022/04/30 13:17:33;;;;;;;4.78;1.98;;;18.30;50.20;;;;;;5080454;28;20875;-79
2022/04/30 13:20:01;;;;;;;2.50;1.98;;;18.20;50.00;;;;;;5081388;28;20223;-79
2022/04/30 13:22:28;;;;;;;3.78;2.20;;;18.20;49.90;;;;;;5084946;28;20321;-79
2022/04/30 13:24:58;;;;;;;2.78;1.85;;;18.00;49.90;;;;;;5086844;28;20222;-79
2022/04/30 13:27:24;;;;;;;2.75;1.70;;;17.90;49.70;;;;;;5088434;28;20577;-79
2022/04/30 13:29:52;;;;;;;3.30;1.80;;;17.90;50.00;;;;;;5088680;28;20709;-80
2022/04/30 13:32:18;;;;;;;4.43;1.90;;;17.80;50.20;;;;;;5084792;28;20234;-79
2022/04/30 13:34:45;;;;;;;3.95;1.85;;;17.80;50.50;;;;;;5079302;28;20676;-79
2022/04/30 13:37:12;;;;;;;4.53;2.03;;;17.90;50.70;;;;;;5068175;28;20304;-79
2022/04/30 13:39:39;;;;;;;3.15;1.70;;;18.00;50.40;;;;;;5089647;28;20249;-79
2022/04/30 13:42:08;;;;;;;3.20;1.95;;;18.10;50.20;;;;;;5091983;28;20313;-79
2022/04/30 13:44:38;;;;;;;4.72;1.85;;;18.10;49.90;;;;;;5082823;28;20644;-79